Time;durP1;ratioP1;P1;durP2;ratioP2;P2;SDS_P1;SDS_P2;PMS_P1;PMS_P2;Temp;Humidity;BMP_temperature;BMP_pressure;BME280_temperature;BME280_humidity;BME280_pressure;Samples;Min_cycle;Max_cycle;Signal;HPM_P1;HPM_P2
2024/02/13 00:00:10;;;;;;;;;26.25;21.00;;;;;-143.90;100.00;75304.53;4861400;28;102165;-71
2024/02/13 00:02:38;;;;;;;;;25.00;18.00;;;;;-143.90;100.00;75316.94;4864604;28;102141;-70
2024/02/13 00:05:08;;;;;;;;;29.00;23.00;;;;;-143.90;100.00;75316.94;4865955;28;103546;-71
2024/02/13 00:07:38;;;;;;;;;31.00;24.75;;;;;-143.90;100.00;75331.41;4847403;28;102388;-71
2024/02/13 00:10:09;;;;;;;;;31.50;26.25;;;;;-143.90;100.00;75335.53;4865296;28;101697;-70
2024/02/13 00:12:36;;;;;;;;;22.50;18.00;;;;;-143.90;100.00;75337.63;4862532;28;102019;-70
2024/02/13 00:15:03;;;;;;;;;16.75;13.75;;;;;-143.90;100.00;75337.63;4863894;28;108481;-71
2024/02/13 00:17:30;;;;;;;;;26.25;22.00;;;;;-143.90;100.00;75337.63;4856747;28;102816;-70
2024/02/13 00:19:59;;;;;;;;;23.75;21.50;;;;;-143.90;100.00;75345.88;4865830;28;101808;-71
2024/02/13 00:22:25;;;;;;;;;24.75;20.50;;;;;-143.90;100.00;75341.75;4859507;28;101877;-71
2024/02/13 00:24:52;;;;;;;;;20.50;17.50;;;;;-143.90;100.00;75339.69;4861359;28;103480;-71
2024/02/13 00:27:19;;;;;;;;;20.00;17.50;;;;;-143.90;100.00;75350.03;4868567;28;102029;-71
2024/02/13 00:29:45;;;;;;;;;12.50;11.25;;;;;-143.90;100.00;75335.53;4870736;28;105163;-71
2024/02/13 00:32:13;;;;;;;;;21.00;18.25;;;;;-143.90;100.00;75343.81;4865335;28;101953;-71
2024/02/13 00:34:40;;;;;;;;;23.00;16.50;;;;;-143.90;100.00;75341.75;4860501;28;103490;-71
2024/02/13 00:37:08;;;;;;;;;18.25;15.25;;;;;-143.90;100.00;75337.63;4861307;28;103302;-72
2024/02/13 00:39:35;;;;;;;;;15.50;14.00;;;;;-143.90;100.00;75341.75;4856202;28;102862;-72
2024/02/13 00:42:05;;;;;;;;;16.75;13.50;;;;;-143.90;100.00;75352.09;4865763;28;102078;-72
2024/02/13 00:44:31;;;;;;;;;19.25;18.00;;;;;-143.90;100.00;75358.28;4859571;28;109615;-72
2024/02/13 00:46:58;;;;;;;;;23.25;18.00;;;;;-143.90;100.00;75383.09;4867190;28;103282;-72
2024/02/13 00:49:25;;;;;;;;;21.75;18.75;;;;;-143.90;100.00;75385.16;4860202;28;103533;-72
2024/02/13 00:51:51;;;;;;;;;20.25;16.00;;;;;-143.90;100.00;75378.97;4855326;28;102182;-72
2024/02/13 00:54:18;;;;;;;;;22.50;20.75;;;;;-143.90;100.00;75393.44;4863719;28;103432;-72
2024/02/13 00:56:45;;;;;;;;;26.50;22.50;;;;;-143.90;100.00;75403.78;4866984;28;101896;-71
2024/02/13 00:59:12;;;;;;;;;22.00;16.00;;;;;-143.90;100.00;75407.91;4856944;28;108047;-72
2024/02/13 01:01:40;;;;;;;;;13.00;9.00;;;;;-143.90;100.00;75414.13;4854520;28;101896;-72
2024/02/13 01:04:06;;;;;;;;;21.75;21.25;;;;;-143.90;100.00;75420.31;4861672;28;103191;-72
2024/02/13 01:06:37;;;;;;;;;28.50;22.00;;;;;-143.90;100.00;75422.38;4863167;28;103048;-72
2024/02/13 01:09:05;;;;;;;;;21.25;20.50;;;;;-143.90;100.00;75432.72;4862632;28;102026;-72
2024/02/13 01:11:33;;;;;;;;;20.00;17.50;;;;;-143.90;100.00;75428.59;4855585;28;102084;-71
2024/02/13 01:14:01;;;;;;;;;21.00;17.25;;;;;-143.90;100.00;75430.66;4861339;28;103350;-72
2024/02/13 01:16:28;;;;;;;;;21.25;20.00;;;;;-143.90;100.00;75441.00;4867698;28;101949;-72
2024/02/13 01:19:00;;;;;;;;;25.75;22.00;;;;;-143.90;100.00;75432.72;4855947;28;101922;-72
2024/02/13 01:21:26;;;;;;;;;20.50;16.00;;;;;-143.90;100.00;75436.84;4865302;28;103438;-71
2024/02/13 01:23:53;;;;;;;;;17.25;14.00;;;;;-143.90;100.00;75441.00;4860644;28;103659;-72
2024/02/13 01:26:20;;;;;;;;;29.75;27.00;;;;;-143.90;100.00;75447.19;4860868;28;102224;-71
2024/02/13 01:28:47;;;;;;;;;27.75;20.50;;;;;-143.90;100.00;75457.53;4848985;28;102209;-72
2024/02/13 01:31:14;;;;;;;;;22.00;19.00;;;;;-143.90;100.00;75451.31;4861563;28;103055;-72
2024/02/13 01:33:41;;;;;;;;;20.50;18.00;;;;;-143.90;100.00;75461.66;4848554;28;103655;-72
2024/02/13 01:36:09;;;;;;;;;19.50;16.50;;;;;-143.90;100.00;75461.66;4860828;28;103018;-72
2024/02/13 01:38:37;;;;;;;;;20.50;17.00;;;;;-143.90;100.00;75469.94;4862496;28;101699;-71
2024/02/13 01:41:04;;;;;;;;;26.00;21.50;;;;;-143.90;100.00;75478.22;4867412;28;101952;-71
2024/02/13 01:43:31;;;;;;;;;29.50;21.75;;;;;-143.90;100.00;75494.75;4854332;28;103449;-71
2024/02/13 01:46:02;;;;;;;;;24.00;20.75;;;;;-143.90;100.00;75490.63;4862760;28;102283;-72
2024/02/13 01:48:29;;;;;;;;;23.75;20.00;;;;;-143.90;100.00;75494.75;4855660;28;101851;-71
2024/02/13 01:50:57;;;;;;;;;26.25;21.50;;;;;-143.90;100.00;75498.88;4862178;28;101632;-71
2024/02/13 01:53:26;;;;;;;;;24.00;20.00;;;;;-143.90;100.00;75498.88;4861780;28;103533;-71
2024/02/13 01:55:57;;;;;;;;;24.00;21.00;;;;;-143.90;100.00;75505.09;4854987;28;102265;-72
2024/02/13 01:58:25;;;;;;;;;22.75;21.00;;;;;-143.90;100.00;75513.34;4860125;28;102097;-72
2024/02/13 02:00:59;;;;;;;;;22.75;21.00;;;;;-143.90;100.00;75513.34;4863803;28;101926;-71
2024/02/13 02:03:36;;;;;;;;;20.75;20.00;;;;;-143.90;100.00;75513.34;4856610;28;103576;-71
2024/02/13 02:06:03;;;;;;;;;24.75;23.25;;;;;-143.90;100.00;75519.56;4864219;28;102292;-72
2024/02/13 02:08:31;;;;;;;;;19.50;16.50;;;;;-143.90;100.00;75519.56;4866904;28;102641;-72
2024/02/13 02:10:58;;;;;;;;;29.25;24.25;;;;;-143.90;100.00;75521.63;4871059;28;106693;-72
2024/02/13 02:13:27;;;;;;;;;23.75;19.00;;;;;-143.90;100.00;75523.69;4866367;28;103484;-72
2024/02/13 02:15:54;;;;;;;;;29.50;21.50;;;;;-143.90;100.00;75523.69;4858884;28;101890;-71
2024/02/13 02:18:21;;;;;;;;;21.25;18.25;;;;;-143.90;100.00;75523.69;4864241;28;102597;-72
2024/02/13 02:20:48;;;;;;;;;17.25;15.50;;;;;-143.90;100.00;75519.56;4858900;28;103038;-72
2024/02/13 02:23:17;;;;;;;;;19.00;15.00;;;;;-143.90;100.00;75521.63;4860266;28;103372;-72
2024/02/13 02:25:43;;;;;;;;;20.00;17.00;;;;;-143.90;100.00;75538.16;4856310;28;102217;-71
2024/02/13 02:28:10;;;;;;;;;23.25;18.25;;;;;-143.90;100.00;75536.09;4862189;28;102968;-72
2024/02/13 02:30:37;;;;;;;;;25.25;20.25;;;;;-143.90;100.00;75542.31;4864266;28;102113;-72
2024/02/13 02:33:04;;;;;;;;;19.25;16.25;;;;;-143.90;100.00;75548.50;4863995;28;108316;-72
2024/02/13 02:35:30;;;;;;;;;13.25;11.75;;;;;-143.90;100.00;75544.38;4858492;28;101762;-72
2024/02/13 02:37:57;;;;;;;;;17.50;11.75;;;;;-143.90;100.00;75552.63;4850739;28;102856;-72
2024/02/13 02:40:24;;;;;;;;;22.25;16.50;;;;;-143.90;100.00;75565.03;4849423;28;102912;-70
2024/02/13 02:42:59;;;;;;;;;22.75;16.00;;;;;-143.90;100.00;75573.31;4862626;28;103584;-71
2024/02/13 02:45:29;;;;;;;;;20.00;17.75;;;;;-143.90;100.00;75577.44;4861369;28;101969;-70
2024/02/13 02:47:56;;;;;;;;;18.00;16.00;;;;;-143.90;100.00;75571.25;4858300;28;103653;-71
2024/02/13 02:50:24;;;;;;;;;17.00;12.75;;;;;-143.90;100.00;75571.25;4846874;28;102484;-70
2024/02/13 02:52:51;;;;;;;;;8.00;6.75;;;;;-143.90;100.00;75569.19;4860349;28;103355;-70
2024/02/13 02:55:18;;;;;;;;;9.50;6.75;;;;;-143.90;100.00;75579.53;4862567;28;102142;-71
2024/02/13 02:57:45;;;;;;;;;11.00;9.00;;;;;-143.90;100.00;75598.13;4858333;28;103187;-71
2024/02/13 03:00:14;;;;;;;;;6.50;6.00;;;;;-143.90;100.00;75600.19;4861345;28;103046;-72
2024/02/13 03:02:41;;;;;;;;;7.00;5.00;;;;;-143.90;100.00;75598.13;4857649;28;102902;-72
2024/02/13 03:05:11;;;;;;;;;10.50;10.00;;;;;-143.90;100.00;75610.53;4867403;28;103116;-71
2024/02/13 03:07:38;;;;;;;;;7.50;6.00;;;;;-143.90;100.00;75614.66;4860845;28;101908;-71
2024/02/13 03:10:10;;;;;;;;;5.00;4.50;;;;;-143.90;100.00;75616.72;4866603;28;101921;-70
2024/02/13 03:12:37;;;;;;;;;5.50;3.50;;;;;-143.90;100.00;75631.22;4865268;28;108802;-70
2024/02/13 03:15:05;;;;;;;;;5.00;5.00;;;;;-143.90;100.00;75639.47;4865344;28;103773;-72
2024/02/13 03:17:32;;;;;;;;;5.25;4.50;;;;;-143.90;100.00;75647.75;4860205;28;102655;-70
2024/02/13 03:20:00;;;;;;;;;5.00;4.50;;;;;-143.90;100.00;75662.22;4866549;28;102277;-70
2024/02/13 03:22:27;;;;;;;;;5.75;5.00;;;;;-143.90;100.00;75670.50;4859478;28;103348;-70
2024/02/13 03:24:54;;;;;;;;;5.00;4.75;;;;;-143.90;100.00;75676.69;4860156;28;101847;-70
2024/02/13 03:27:21;;;;;;;;;2.00;2.00;;;;;-143.90;100.00;75680.84;4859106;28;102986;-70
2024/02/13 03:29:48;;;;;;;;;2.00;2.00;;;;;-143.90;100.00;75689.09;4856543;28;102387;-70
2024/02/13 03:32:14;;;;;;;;;2.50;2.00;;;;;-143.90;100.00;75693.25;4859237;28;103449;-71
2024/02/13 03:34:41;;;;;;;;;1.25;1.00;;;;;-143.90;100.00;75697.38;4857059;28;101951;-71
2024/02/13 03:37:08;;;;;;;;;6.25;5.00;;;;;-143.90;100.00;75695.31;4865823;28;102025;-71
2024/02/13 03:39:36;;;;;;;;;3.00;3.00;;;;;-143.90;100.00;75699.44;4862064;28;102261;-71
2024/02/13 03:42:02;;;;;;;;;1.00;1.00;;;;;-143.90;100.00;75699.44;4864909;28;104332;-71
2024/02/13 03:44:29;;;;;;;;;2.00;2.00;;;;;-143.90;100.00;75695.31;4869786;28;101685;-72
2024/02/13 03:46:56;;;;;;;;;4.50;3.00;;;;;-143.90;100.00;75697.38;4868111;28;101773;-71
2024/02/13 03:49:22;;;;;;;;;3.00;2.50;;;;;-143.90;100.00;75705.66;4860932;28;101840;-72
2024/02/13 03:51:49;;;;;;;;;5.50;5.00;;;;;-143.90;100.00;75709.78;4855587;28;103434;-71
2024/02/13 03:54:16;;;;;;;;;1.25;1.25;;;;;-143.90;100.00;75722.19;4867749;28;102068;-71
2024/02/13 03:56:43;;;;;;;;;5.25;5.00;;;;;-143.90;100.00;75726.31;4863442;28;102057;-71
2024/02/13 03:59:10;;;;;;;;;5.75;5.00;;;;;-143.90;100.00;75749.06;4869269;28;103009;-71
2024/02/13 04:01:39;;;;;;;;;1.75;1.25;;;;;-143.90;100.00;75742.88;4851259;28;103403;-71
2024/02/13 04:04:06;;;;;;;;;7.50;4.00;;;;;-143.90;100.00;75749.06;4862900;28;101989;-71
2024/02/13 04:06:33;;;;;;;;;5.50;4.75;;;;;-143.90;100.00;75755.28;4863257;28;103059;-71
2024/02/13 04:09:02;;;;;;;;;6.00;4.75;;;;;-143.90;100.00;75767.69;4864808;28;102823;-71
2024/02/13 04:11:30;;;;;;;;;9.00;7.00;;;;;-143.90;100.00;75782.16;4862435;28;103394;-71
2024/02/13 04:13:57;;;;;;;;;8.00;7.00;;;;;-143.90;100.00;75788.34;4867623;28;101842;-71
2024/02/13 04:16:24;;;;;;;;;11.75;11.75;;;;;-143.90;100.00;75786.28;4856320;28;102371;-72
2024/02/13 04:18:53;;;;;;;;;11.00;11.00;;;;;-143.90;100.00;75780.09;4864719;28;101800;-71
2024/02/13 04:21:20;;;;;;;;;14.00;13.50;;;;;-143.90;100.00;75771.81;4861015;28;103422;-72
2024/02/13 04:23:50;;;;;;;;;8.50;7.00;;;;;-143.90;100.00;75775.94;4860137;28;103037;-71
2024/02/13 04:26:20;;;;;;;;;7.50;5.75;;;;;-143.90;100.00;75769.75;4870674;28;102770;-71
2024/02/13 04:29:01;;;;;;;;;6.00;6.00;;;;;-143.90;100.00;75767.69;4864968;28;101963;-71
2024/02/13 04:31:28;;;;;;;;;10.25;9.75;;;;;-143.90;100.00;75763.53;4856368;28;103508;-71
2024/02/13 04:33:55;;;;;;;;;6.50;5.50;;;;;-143.90;100.00;75759.41;4853452;28;103366;-71
2024/02/13 04:36:23;;;;;;;;;9.00;7.50;;;;;-143.90;100.00;75759.41;4866126;28;101882;-71
2024/02/13 04:38:50;;;;;;;;;11.00;7.00;;;;;-143.90;100.00;75755.28;4869800;28;103292;-71
2024/02/13 04:41:18;;;;;;;;;13.75;11.00;;;;;-143.90;100.00;75755.28;4865032;28;103365;-71
2024/02/13 04:43:45;;;;;;;;;11.50;9.00;;;;;-143.90;100.00;75755.28;4856286;28;102063;-71
2024/02/13 04:46:11;;;;;;;;;8.00;8.00;;;;;-143.90;100.00;75744.94;4864371;28;101638;-71
2024/02/13 04:48:38;;;;;;;;;7.00;7.00;;;;;-143.90;100.00;75747.00;4860464;28;106475;-71
2024/02/13 04:51:05;;;;;;;;;15.25;14.00;;;;;-143.90;100.00;75747.00;4859550;28;108207;-71
2024/02/13 04:53:32;;;;;;;;;10.00;6.50;;;;;-143.90;100.00;75742.88;4860907;28;102243;-70
2024/02/13 04:55:59;;;;;;;;;12.00;10.50;;;;;-143.90;100.00;75736.66;4858373;28;101972;-71
2024/02/13 04:58:32;;;;;;;;;11.75;10.00;;;;;-143.90;100.00;75738.72;4856877;28;101606;-71
2024/02/13 05:01:04;;;;;;;;;14.00;10.50;;;;;-143.90;100.00;75730.47;4858316;28;103409;-71
2024/02/13 05:03:39;;;;;;;;;19.25;17.00;;;;;-143.90;100.00;75730.47;4847502;28;101852;-71
2024/02/13 05:08:53;;;;;;;;;25.25;19.50;;;;;-143.90;100.00;75728.38;4861017;28;101976;-71
2024/02/13 05:11:20;;;;;;;;;25.75;23.25;;;;;-143.90;100.00;75728.38;4862301;28;103592;-71
2024/02/13 05:13:46;;;;;;;;;28.75;20.00;;;;;-143.90;100.00;75722.19;4868094;28;101660;-72
2024/02/13 05:16:13;;;;;;;;;18.00;15.50;;;;;-143.90;100.00;75713.91;4865244;28;102642;-72
2024/02/13 05:18:40;;;;;;;;;22.25;17.25;;;;;-143.90;100.00;75715.97;4865823;28;102061;-71
2024/02/13 05:21:08;;;;;;;;;14.00;9.50;;;;;-143.90;100.00;75709.78;4869445;28;103288;-72
2024/02/13 05:23:35;;;;;;;;;17.00;12.00;;;;;-143.90;100.00;75705.66;4855843;28;102275;-71
2024/02/13 05:26:01;;;;;;;;;11.75;10.50;;;;;-143.90;100.00;75703.56;4858992;28;102602;-71
2024/02/13 05:28:28;;;;;;;;;10.50;7.75;;;;;-143.90;100.00;75703.56;4867040;28;102679;-71
2024/02/13 05:30:55;;;;;;;;;8.50;7.25;;;;;-143.90;100.00;75701.50;4858362;28;103817;-71
2024/02/13 05:33:22;;;;;;;;;11.00;10.00;;;;;-143.90;100.00;75701.50;4863336;28;103177;-71
2024/02/13 05:35:49;;;;;;;;;19.75;15.00;;;;;-143.90;100.00;75709.78;4854617;28;102721;-70
2024/02/13 05:38:16;;;;;;;;;26.00;23.00;;;;;-143.90;100.00;75709.78;4859315;28;102961;-70
2024/02/13 05:40:43;;;;;;;;;29.50;22.00;;;;;-143.90;100.00;75705.66;4862799;28;103478;-71
2024/02/13 05:43:11;;;;;;;;;32.00;28.25;;;;;-143.90;100.00;75722.19;4866874;28;101735;-70
2024/02/13 05:45:37;;;;;;;;;26.25;23.00;;;;;-143.90;100.00;75701.50;4858021;28;103166;-71
2024/02/13 05:48:09;;;;;;;;;31.75;26.25;;;;;-143.90;100.00;75718.06;4865220;28;102029;-70
2024/02/13 05:50:36;;;;;;;;;46.75;37.00;;;;;-143.90;100.00;75713.91;4864030;28;108061;-71
2024/02/13 05:53:03;;;;;;;;;31.75;25.50;;;;;-143.90;100.00;75720.13;4863950;28;104306;-72
2024/02/13 05:55:30;;;;;;;;;42.25;35.25;;;;;-143.90;100.00;75720.13;4858727;28;101864;-71
2024/02/13 05:57:57;;;;;;;;;31.50;30.25;;;;;-143.90;100.00;75713.91;4858718;28;102018;-71
2024/02/13 06:00:25;;;;;;;;;45.00;37.00;;;;;-143.90;100.00;75724.25;4864333;28;103271;-72
2024/02/13 06:02:54;;;;;;;;;46.75;37.25;;;;;-143.90;100.00;75728.38;4865572;28;101836;-71
2024/02/13 06:05:21;;;;;;;;;33.50;24.25;;;;;-143.90;100.00;75722.19;4869874;28;102103;-71
2024/02/13 06:07:50;;;;;;;;;44.75;36.50;;;;;-143.90;100.00;75722.19;4861928;28;102160;-72
2024/02/13 06:10:17;;;;;;;;;41.00;35.50;;;;;-143.90;100.00;75726.31;4867768;28;103316;-71
2024/02/13 06:12:44;;;;;;;;;49.75;35.50;;;;;-143.90;100.00;75730.47;4865258;28;101741;-71
2024/02/13 06:15:10;;;;;;;;;40.75;27.25;;;;;-143.90;100.00;75726.31;4866662;28;102813;-72
2024/02/13 06:17:37;;;;;;;;;45.50;32.00;;;;;-143.90;100.00;75730.47;4857007;28;102189;-72
2024/02/13 06:20:05;;;;;;;;;30.50;27.00;;;;;-143.90;100.00;75718.06;4870642;28;108188;-73
2024/02/13 06:22:32;;;;;;;;;42.25;34.25;;;;;-143.90;100.00;75730.47;4877114;28;101710;-73
2024/02/13 06:25:00;;;;;;;;;41.25;28.00;;;;;-143.90;100.00;75726.31;4876644;28;101851;-73
2024/02/13 06:27:30;;;;;;;;;41.50;36.50;;;;;-143.90;100.00;75742.88;4873787;28;101840;-72
2024/02/13 06:29:56;;;;;;;;;40.25;32.75;;;;;-143.90;100.00;75747.00;4866432;28;103773;-73
2024/02/13 06:32:24;;;;;;;;;45.50;35.00;;;;;-143.90;100.00;75757.34;4869012;28;102067;-73
2024/02/13 06:34:53;;;;;;;;;40.75;36.25;;;;;-143.90;100.00;75765.59;4878204;28;101629;-73
2024/02/13 06:37:20;;;;;;;;;50.50;36.50;;;;;-143.90;100.00;75767.69;4857468;28;101992;-73
2024/02/13 06:39:51;;;;;;;;;34.75;28.25;;;;;-143.90;100.00;75759.41;4863912;28;103423;-73
2024/02/13 06:42:19;;;;;;;;;41.50;34.75;;;;;-143.90;100.00;75769.75;4868596;28;101792;-73
2024/02/13 06:44:47;;;;;;;;;37.25;30.00;;;;;-143.90;100.00;75775.94;4874206;28;102020;-72
2024/02/13 06:47:13;;;;;;;;;40.25;32.50;;;;;-143.90;100.00;75775.94;4860394;28;108054;-72
2024/02/13 06:49:40;;;;;;;;;41.00;35.00;;;;;-143.90;100.00;75780.09;4870373;28;103459;-72
2024/02/13 06:52:08;;;;;;;;;40.50;36.00;;;;;-143.90;100.00;75790.41;4875388;28;101982;-72
2024/02/13 06:54:35;;;;;;;;;39.50;29.75;;;;;-143.90;100.00;75794.56;4871985;28;102015;-72
2024/02/13 06:57:02;;;;;;;;;36.75;34.00;;;;;-143.90;100.00;75796.63;4870344;28;101659;-73
2024/02/13 06:59:29;;;;;;;;;35.00;29.25;;;;;-143.90;100.00;75800.75;4872011;28;103394;-72
2024/02/13 07:01:56;;;;;;;;;42.25;31.00;;;;;-143.90;100.00;75800.75;4858219;28;101555;-73
2024/02/13 07:04:23;;;;;;;;;40.50;29.75;;;;;-143.90;100.00;75804.91;4873011;28;102018;-73
2024/02/13 07:06:55;;;;;;;;;34.25;28.75;;;;;-143.90;100.00;75804.91;4874677;28;103314;-72
2024/02/13 07:09:39;;;;;;;;;30.50;27.00;;;;;-143.90;100.00;75809.03;4864328;28;108294;-72
2024/02/13 07:12:07;;;;;;;;;36.50;30.00;;;;;-143.90;100.00;75806.97;4869688;28;101622;-72
2024/02/13 07:14:34;;;;;;;;;37.00;27.75;;;;;-143.90;100.00;75809.03;4864354;28;101836;-73
2024/02/13 07:17:01;;;;;;;;;31.00;23.00;;;;;-143.90;100.00;75809.03;4880240;28;101982;-73
2024/02/13 07:19:28;;;;;;;;;29.50;26.00;;;;;-143.90;100.00;75817.31;4870543;28;103430;-73
2024/02/13 07:21:55;;;;;;;;;31.50;25.50;;;;;-143.90;100.00;75813.16;4852775;28;102030;-73
2024/02/13 07:24:22;;;;;;;;;19.25;15.75;;;;;-143.90;100.00;75800.75;4868464;28;101820;-73
2024/02/13 07:26:48;;;;;;;;;29.25;24.00;;;;;-143.90;100.00;75804.91;4878067;28;102070;-73
2024/02/13 07:29:16;;;;;;;;;25.75;22.50;;;;;-143.90;100.00;75825.56;4876797;28;103394;-73
2024/02/13 07:31:43;;;;;;;;;33.75;27.00;;;;;-143.90;100.00;75817.31;4862825;28;102171;-73
2024/02/13 07:34:10;;;;;;;;;30.25;24.50;;;;;-143.90;100.00;75800.75;4879155;28;101560;-72
2024/02/13 07:36:38;;;;;;;;;37.50;29.00;;;;;-143.90;100.00;75802.81;4873008;28;101675;-73
2024/02/13 07:39:05;;;;;;;;;32.75;25.00;;;;;-143.90;100.00;75813.16;4873957;28;103369;-72
2024/02/13 07:41:35;;;;;;;;;36.75;30.00;;;;;-143.90;100.00;75827.63;4871092;28;102051;-73
2024/02/13 07:44:02;;;;;;;;;28.50;22.00;;;;;-143.90;100.00;75813.16;4874689;28;101933;-73
2024/02/13 07:46:29;;;;;;;;;30.00;24.50;;;;;-143.90;100.00;75809.03;4871541;28;101726;-73
2024/02/13 07:48:55;;;;;;;;;32.50;25.50;;;;;-143.90;100.00;75809.03;4851976;28;103197;-73
2024/02/13 07:51:22;;;;;;;;;29.50;25.00;;;;;-143.90;100.00;75827.63;4869490;28;101656;-73
2024/02/13 07:53:49;;;;;;;;;29.00;23.25;;;;;-143.90;100.00;75813.16;4872308;28;103346;-73
2024/02/13 07:56:18;;;;;;;;;23.00;20.25;;;;;-143.90;100.00;75806.97;4871553;28;102471;-73
2024/02/13 07:58:45;;;;;;;;;24.75;21.00;;;;;-143.90;100.00;75796.63;4872648;28;103752;-73
2024/02/13 08:01:11;;;;;;;;;23.00;19.00;;;;;-143.90;100.00;75784.22;4873073;28;106853;-72
2024/02/13 08:03:39;;;;;;;;;27.00;24.50;;;;;-143.90;100.00;75796.63;4867170;28;101868;-73
2024/02/13 08:06:06;;;;;;;;;27.25;21.75;;;;;-143.90;100.00;75788.34;4874275;28;101980;-73
2024/02/13 08:08:33;;;;;;;;;26.75;22.25;;;;;-143.90;100.00;75792.50;4875011;28;103352;-73
2024/02/13 08:11:00;;;;;;;;;22.00;20.25;;;;;-143.90;100.00;75792.50;4877472;28;101857;-72
2024/02/13 08:13:26;;;;;;;;;31.00;23.00;;;;;-143.90;100.00;75778.00;4872964;28;102260;-73
2024/02/13 08:15:53;;;;;;;;;26.50;20.00;;;;;-143.90;100.00;75790.41;4865862;28;107608;-73
2024/02/13 08:18:20;;;;;;;;;11.75;9.75;;;;;-143.90;100.00;75778.00;4870893;28;103389;-73
2024/02/13 08:20:46;;;;;;;;;23.50;20.00;;;;;-143.90;100.00;75771.81;4873895;28;101715;-73
2024/02/13 08:23:13;;;;;;;;;23.50;21.75;;;;;-143.90;100.00;75775.94;4877439;28;102829;-72
2024/02/13 08:25:40;;;;;;;;;22.50;21.00;;;;;-143.90;100.00;75775.94;4866783;28;101433;-73
2024/02/13 08:28:09;;;;;;;;;31.75;24.00;;;;;-143.90;100.00;75788.34;4863095;28;103660;-73
2024/02/13 08:30:36;;;;;;;;;26.75;22.25;;;;;-143.90;100.00;75796.63;4868344;28;101474;-73
2024/02/13 08:33:04;;;;;;;;;19.25;17.50;;;;;-143.90;100.00;75796.63;4874153;28;102661;-73
2024/02/13 08:35:31;;;;;;;;;20.50;18.50;;;;;-143.90;100.00;75784.22;4872063;28;103548;-74
2024/02/13 08:37:58;;;;;;;;;24.50;20.50;;;;;-143.90;100.00;75786.28;4872886;28;103364;-73
2024/02/13 08:40:24;;;;;;;;;29.00;22.25;;;;;-143.90;100.00;75784.22;4873839;28;102034;-73
2024/02/13 08:42:52;;;;;;;;;26.25;24.00;;;;;-143.90;100.00;75775.94;4871268;28;102174;-73
2024/02/13 08:45:20;;;;;;;;;27.00;24.25;;;;;-143.90;100.00;75782.16;4875069;28;101872;-73
2024/02/13 08:47:50;;;;;;;;;36.50;31.00;;;;;-143.90;100.00;75775.94;4863616;28;103632;-73
2024/02/13 08:50:17;;;;;;;;;37.75;31.25;;;;;-143.90;100.00;75773.88;4871660;28;101929;-73
2024/02/13 08:52:44;;;;;;;;;19.00;17.50;;;;;-143.90;100.00;75753.19;4868475;28;101861;-74
2024/02/13 08:55:10;;;;;;;;;31.75;23.75;;;;;-143.90;100.00;75747.00;4876712;28;102074;-73
2024/02/13 08:57:39;;;;;;;;;28.00;22.75;;;;;-143.90;100.00;75742.88;4863002;28;109226;-73
2024/02/13 09:00:11;;;;;;;;;31.75;27.25;;;;;-143.90;100.00;75755.28;4876844;28;101588;-73
2024/02/13 09:02:38;;;;;;;;;28.00;24.50;;;;;-143.90;100.00;75757.34;4870821;28;101858;-73
2024/02/13 09:05:05;;;;;;;;;21.50;19.00;;;;;-143.90;100.00;75738.72;4872119;28;102172;-74
2024/02/13 09:07:31;;;;;;;;;25.00;19.00;;;;;-143.90;100.00;75747.00;4870762;28;103458;-73
2024/02/13 09:09:58;;;;;;;;;21.50;16.50;;;;;-143.90;100.00;75749.06;4873497;28;102435;-73
2024/02/13 09:12:25;;;;;;;;;22.25;16.50;;;;;-143.90;100.00;75738.72;4869492;28;102163;-73
2024/02/13 09:14:52;;;;;;;;;18.00;17.75;;;;;-143.90;100.00;75726.31;4873336;28;102369;-73
2024/02/13 09:17:19;;;;;;;;;25.00;22.00;;;;;-143.90;100.00;75736.66;4872306;28;103532;-73
2024/02/13 09:19:45;;;;;;;;;19.00;17.00;;;;;-143.90;100.00;75713.91;4870145;28;101844;-73
2024/02/13 09:22:13;;;;;;;;;14.75;12.50;;;;;-143.90;100.00;75689.09;4876955;28;101947;-73
2024/02/13 09:24:45;;;;;;;;;21.00;17.50;;;;;-143.90;100.00;75676.69;4877061;28;102054;-74
2024/02/13 09:27:11;;;;;;;;;21.25;18.00;;;;;-143.90;100.00;75676.69;4878026;28;108335;-73
2024/02/13 09:29:38;;;;;;;;;17.50;14.75;;;;;-143.90;100.00;75678.75;4866598;28;102427;-72
2024/02/13 09:32:05;;;;;;;;;14.75;13.75;;;;;-143.90;100.00;75656.03;4871112;28;102141;-73
2024/02/13 09:34:33;;;;;;;;;17.50;14.00;;;;;-143.90;100.00;75637.41;4875679;28;103127;-73
2024/02/13 09:37:00;;;;;;;;;16.25;13.00;;;;;-143.90;100.00;75647.75;4878380;28;103336;-73
2024/02/13 09:39:30;;;;;;;;;13.00;12.00;;;;;-143.90;100.00;75637.41;4876364;28;102723;-73
2024/02/13 09:41:58;;;;;;;;;13.50;12.75;;;;;-143.90;100.00;75631.22;4870884;28;101706;-73
2024/02/13 09:44:25;;;;;;;;;15.75;13.25;;;;;-143.90;100.00;75639.47;4872600;28;102038;-73
2024/02/13 09:46:52;;;;;;;;;23.00;15.50;;;;;-143.90;100.00;75647.75;4874949;28;103409;-73
2024/02/13 09:49:21;;;;;;;;;14.75;13.75;;;;;-143.90;100.00;75622.94;4873782;28;101867;-74
2024/02/13 09:51:52;;;;;;;;;16.00;14.50;;;;;-143.90;100.00;75591.94;4867175;28;105035;-73
2024/02/13 09:54:23;;;;;;;;;18.25;17.50;;;;;-143.90;100.00;75573.31;4859856;28;101702;-73
2024/02/13 09:56:51;;;;;;;;;15.25;12.75;;;;;-143.90;100.00;75620.88;4873675;28;103499;-73
2024/02/13 09:59:21;;;;;;;;;16.50;14.00;;;;;-143.90;100.00;75639.47;4873224;28;101817;-73
2024/02/13 10:01:49;;;;;;;;;19.00;15.50;;;;;-143.90;100.00;75620.88;4865316;28;102733;-74
2024/02/13 10:04:15;;;;;;;;;23.50;19.00;;;;;-143.90;100.00;75622.94;4877877;28;102021;-73
2024/02/13 10:06:42;;;;;;;;;15.00;14.50;;;;;-143.90;100.00;75594.00;4872629;28;103602;-73
2024/02/13 10:09:11;;;;;;;;;20.00;18.50;;;;;-143.90;100.00;75600.19;4877961;28;101500;-73
2024/02/13 10:11:38;;;;;;;;;13.25;9.50;;;;;-143.90;100.00;75575.38;4864993;28;102064;-72
2024/02/13 10:14:15;;;;;;;;;12.75;10.25;;;;;-143.90;100.00;75569.19;4873671;28;102604;-72
2024/02/13 10:16:42;;;;;;;;;14.50;12.75;;;;;-143.90;100.00;75573.31;4868724;28;107991;-72
2024/02/13 10:19:09;;;;;;;;;16.75;13.25;;;;;-143.90;100.00;75573.31;4874537;28;102054;-72
2024/02/13 10:21:37;;;;;;;;;19.75;16.00;;;;;-143.90;100.00;75531.97;4866586;28;101580;-73
2024/02/13 10:24:15;;;;;;;;;15.00;13.25;;;;;-143.90;100.00;75560.91;4879088;28;101877;-72
2024/02/13 10:26:42;;;;;;;;;10.00;8.75;;;;;-143.90;100.00;75519.56;4873055;28;107961;-73
2024/02/13 10:29:09;;;;;;;;;9.75;9.75;;;;;-143.90;100.00;75472.00;4870226;28;101974;-73
2024/02/13 10:31:37;;;;;;;;;19.25;15.50;;;;;-143.90;100.00;75515.41;4865725;28;101690;-73
2024/02/13 10:34:09;;;;;;;;;10.75;9.25;;;;;-143.90;100.00;75513.34;4873396;28;102071;-71
2024/02/13 10:36:41;;;;;;;;;9.50;7.75;;;;;-143.90;67.96;75544.38;4873334;28;103369;-73
2024/02/13 10:39:12;;;;;;;;;12.25;10.00;;;;;-143.90;68.96;75540.22;4870735;28;102166;-73
2024/02/13 10:41:40;;;;;;;;;20.25;13.75;;;;;-143.90;71.77;75552.63;4861575;28;101737;-72
2024/02/13 10:44:10;;;;;;;;;8.75;7.00;;;;;-143.90;68.37;75544.38;4872902;28;101603;-72
2024/02/13 10:46:39;;;;;;;;;5.75;4.00;;;;;-143.90;65.80;75562.97;4871043;28;108410;-73
2024/02/13 10:49:32;;;;;;;;;5.75;4.75;;;;;-143.90;64.91;75587.78;4871370;28;102586;-72
2024/02/13 10:52:00;;;;;;;;;4.50;4.50;;;;;-143.90;64.40;75585.72;4872010;28;102823;-72
2024/02/13 10:54:31;;;;;;;;;5.25;5.25;;;;;-143.90;65.43;75573.31;4874312;28;102226;-71